• Join FlightAware (Why Join?)
  • Login
  • US Flag 
06:59PM EST


 

Airport Tracker/Info


-or-


 

Live Flight TrackerFlight Track Log ✈ GJS3649 ✈ 09-May-2013 ✈ KBDL - KIAD

Flight Track Log - Related Links

Times and Time Zones

All times are in EDT time to prevent confusion due to time zone crossing. See the GJS3649 flight status page for this flight to view local times or setup timezone preferences in your user account.

Time Position Orientation Groundspeed Altitude Reporting Facility
EDT Latitude Longitude Course Direction KTS MPH feet Rate Location/Type
07:20PM 41.9500 -72.7108 242° Southwest 163 188 1,200  Level Boston Center
07:21PM 41.9372 -72.7833 257° West 181 208 3,300 2,040 Climbing Boston Center
07:22PM 41.9306 -72.8753 264° West 218 251 5,400 2,520 Climbing Boston Center
07:23PM 41.9261 -72.9731 267° West 248 285 8,400 3,000 Climbing Boston Center
07:24PM 41.9006 -73.2252 265° West  Level FlightAware Approximate
07:24PM 41.9236 -73.0678 268° West 267 307 11,400  Level Boston Center
07:25PM 41.8741 -73.3519 236° Southwest  Level FlightAware Approximate
07:25PM 41.9167 -73.1822 265° West 288 331 12,500  Level Boston Center
07:26PM 41.8196 -73.4678 242° Southwest  Level FlightAware Approximate
07:26PM 41.9011 -73.3075 261° West 334 384 15,000  Level Boston Center
07:27PM 41.8564 -73.4128 240° Southwest 347 399 16,700 1,680 Climbing Boston Center
07:28PM 41.7619 -73.4894 211° Southwest 361 415 18,400 1,800 Climbing Boston Center
07:30PM 41.5661 -73.5522 193° South 407 468 22,000 1,920 Climbing New York Center
07:31PM 41.4569 -73.5919 195° South 397 457 24,000 1,980 Climbing New York Center
07:32PM 41.3519 -73.6261 194° South 397 457 26,000 1,740 Climbing New York Center
07:33PM 41.2450 -73.6603 194° South 397 457 27,500 1,140 Climbing New York Center
07:34PM 41.1656 -73.7506 221° Southwest 388 447 28,400 900 Climbing New York Center
07:35PM 41.1225 -73.8892 248° West 376 433 29,400 780 Climbing New York Center
07:36PM 41.0772 -74.0244 246° West 387 445 30,000  Climbing New York Center
07:37PM 41.0356 -74.1739 250° West 418 481 29,400 -900 Descending New York Center
07:38PM 40.9853 -74.3225 246° West 433 498 28,300 -720 Descending New York Center
07:39PM 40.9411 -74.4739 249° West 447 514 28,000 -180 Descending New York Center
07:40PM 40.8969 -74.6169 248° West 447 514 28,000  Level New York Center
07:41PM 40.8506 -74.7569 246° West 436 502 28,000  Level New York Center
07:42PM 40.7894 -74.8961 240° Southwest 430 495 28,000  Level New York Center
07:43PM 40.7219 -75.0397 238° Southwest 447 514 28,000 -60 Level New York Center
07:44PM 40.6542 -75.1806 238° Southwest 458 527 27,900 -840 Descending New York Center
07:45PM 40.5906 -75.3214 239° Southwest 458 527 26,400 -1,500 Descending New York Center
07:46PM 40.5247 -75.4589 238° Southwest 453 521 24,900 -1,500 Descending New York Center
07:47PM 40.4589 -75.5908 237° Southwest 448 516 23,400 -1,500 Descending New York Center
07:48PM 40.3994 -75.7231 239° Southwest 435 501 22,000 -1,440 Descending New York Center
07:49PM 40.3356 -75.8519 237° Southwest 435 501 20,600 -1,020 Descending New York Center
07:50PM 40.2694 -75.9831 237° Southwest 440 506 20,000 -600 Descending New York Center
07:51PM 40.2239 -76.1156 246° West 425 489 19,400 -840 Descending New York Center
07:52PM 40.1975 -76.2358 254° West 402 463 18,400 -1,020 Descending New York Center
07:53PM 40.1550 -76.3872 250° West 397 457 17,400 -900 Descending New York Center
07:54PM 40.1000 -76.4889 235° Southwest 386 444 16,600 -540 Descending New York Center
07:58PM 39.9368 -76.6473 241° Southwest  Level FlightAware Approximate
07:59PM 39.8167 -76.9500 241° Southwest 369 425 14,700  Level Potomac TRACON
08:00PM 39.7667 -77.0667 241° Southwest 368 423 13,000 -1,620 Descending Potomac TRACON
08:01PM 39.7167 -77.1667 237° Southwest 362 417 11,500 -1,500 Descending Potomac TRACON
08:02PM 39.6667 -77.2667 237° Southwest 346 398 10,000 -900 Descending Potomac TRACON
08:03PM 39.6000 -77.3333 218° Southwest 303 349 9,800 -660 Descending Potomac TRACON
08:04PM 39.5167 -77.3500 189° South 302 348 8,700 -1,200 Descending Potomac TRACON
08:05PM 39.4333 -77.3667 189° South 306 352 7,400 -1,320 Descending Potomac TRACON
08:05PM 39.3500 -77.3667 180° South 306 352 6,200 -1,200 Descending Potomac TRACON
08:06PM 39.2667 -77.3667 180° South 295 339 5,100 -1,020 Descending Potomac TRACON
08:08PM 39.1833 -77.3667 180° South 289 333 4,100 -540 Descending Potomac TRACON
08:08PM 39.1000 -77.3500 171° South 279 321 4,100 -480 Level Potomac TRACON
08:09PM 39.0333 -77.3500 180° South 276 318 3,300 -480 Descending Potomac TRACON
08:11PM 38.9500 -77.3667 189° South 272 313 3,100 -120 Descending Potomac TRACON
08:11PM 38.8833 -77.3667 180° South 273 314 3,100  Level Potomac TRACON
08:13PM 38.8167 -77.3667 180° South 207 238 3,100 -360 Level Potomac TRACON
08:14PM 38.8000 -77.4167 247° West 178 205 2,400 -720 Descending Potomac TRACON